Time;durP1;ratioP1;P1;durP2;ratioP2;P2;SDS_P1;SDS_P2;PMS_P1;PMS_P2;Temp;Humidity;BMP_temperature;BMP_pressure;BME280_temperature;BME280_humidity;BME280_pressure;Samples;Min_cycle;Max_cycle;Signal;HPM_P1;HPM_P2
2020/12/01 00:01:09;;;;;;;47.10;30.15;;;1.10;99.90;;;;;;4905540;29;20476;-25
2020/12/01 00:03:38;;;;;;;44.58;29.65;;;1.20;99.90;;;;;;4902036;29;20385;-24
2020/12/01 00:06:04;;;;;;;46.90;30.20;;;1.20;99.90;;;;;;4900715;29;20206;-24
2020/12/01 00:08:31;;;;;;;46.27;32.30;;;1.30;99.90;;;;;;4896852;29;20448;-24
2020/12/01 00:10:58;;;;;;;45.10;31.27;;;1.40;99.90;;;;;;4898714;29;20447;-24
2020/12/01 00:13:24;;;;;;;47.42;34.40;;;1.40;99.90;;;;;;4898864;29;20473;-24
2020/12/01 00:15:51;;;;;;;53.70;33.80;;;1.50;99.90;;;;;;4897854;29;20257;-24
2020/12/01 00:18:19;;;;;;;54.20;34.73;;;1.50;99.90;;;;;;4897467;29;20825;-24
2020/12/01 00:20:45;;;;;;;50.23;33.33;;;1.50;99.90;;;;;;4897336;29;20836;-23
2020/12/01 00:23:12;;;;;;;47.20;33.03;;;1.50;99.90;;;;;;4898453;29;20441;-23
2020/12/01 00:25:38;;;;;;;48.50;33.00;;;1.50;99.90;;;;;;4896849;29;20460;-23
2020/12/01 00:28:05;;;;;;;45.77;33.97;;;1.50;99.90;;;;;;4896636;29;20475;-25
2020/12/01 00:30:32;;;;;;;52.70;33.77;;;1.60;99.90;;;;;;4896996;29;20721;-25
2020/12/01 00:32:59;;;;;;;48.47;30.90;;;1.60;99.90;;;;;;4895928;29;20532;-25
2020/12/01 00:35:30;;;;;;;45.77;32.87;;;1.70;99.90;;;;;;4877038;29;20445;-25
2020/12/01 00:37:57;;;;;;;41.65;28.85;;;1.70;99.90;;;;;;4894333;29;20835;-25
2020/12/01 00:40:24;;;;;;;41.07;28.37;;;1.70;99.90;;;;;;4894480;29;20408;-25
2020/12/01 00:42:51;;;;;;;36.43;28.20;;;1.50;99.90;;;;;;4896513;29;20428;-26
2020/12/01 00:45:18;;;;;;;44.50;30.67;;;1.40;99.90;;;;;;4897361;29;20467;-25
2020/12/01 00:47:45;;;;;;;37.93;26.90;;;1.30;99.90;;;;;;4897228;29;20449;-25
2020/12/01 00:50:14;;;;;;;37.97;28.17;;;1.20;99.90;;;;;;4896346;29;20440;-25
2020/12/01 00:52:42;;;;;;;41.90;27.07;;;1.20;99.90;;;;;;4897084;29;20449;-25
2020/12/01 00:55:09;;;;;;;34.57;24.53;;;1.20;99.90;;;;;;4895570;29;20556;-25
2020/12/01 00:57:36;;;;;;;42.13;26.23;;;1.30;99.90;;;;;;4896986;29;20468;-25
2020/12/01 01:00:06;;;;;;;38.03;25.90;;;1.40;99.90;;;;;;4894661;29;20480;-25
2020/12/01 01:02:56;;;;;;;36.90;25.70;;;1.40;99.90;;;;;;4897042;29;20528;-25
2020/12/01 01:05:23;;;;;;;40.60;28.00;;;1.50;99.90;;;;;;4897396;29;20487;-25
2020/12/01 01:07:51;;;;;;;45.47;31.20;;;1.50;99.90;;;;;;4897682;29;20777;-25
2020/12/01 01:10:20;;;;;;;49.77;29.87;;;1.50;99.90;;;;;;4897614;29;20731;-25
2020/12/01 01:12:46;;;;;;;50.07;32.63;;;1.50;99.90;;;;;;4898773;29;20448;-25
2020/12/01 01:15:13;;;;;;;53.07;33.13;;;1.50;99.90;;;;;;4898975;29;20484;-25
2020/12/01 01:17:40;;;;;;;53.87;35.10;;;1.60;99.90;;;;;;4899978;29;20630;-26
2020/12/01 01:20:08;;;;;;;48.83;32.10;;;1.60;99.90;;;;;;4903672;29;20906;-25
2020/12/01 01:22:39;;;;;;;53.80;35.43;;;1.60;99.90;;;;;;4900010;29;20440;-25
2020/12/01 01:25:08;;;;;;;46.07;31.27;;;1.60;99.90;;;;;;4904701;29;20449;-25
2020/12/01 01:27:35;;;;;;;43.43;30.87;;;1.70;99.90;;;;;;4908337;29;20878;-25
2020/12/01 01:30:01;;;;;;;46.53;30.93;;;1.70;99.90;;;;;;4907815;29;20456;-25
2020/12/01 01:32:28;;;;;;;52.60;33.77;;;1.70;99.90;;;;;;4905779;29;20444;-25
2020/12/01 01:34:54;;;;;;;47.70;32.40;;;1.70;99.90;;;;;;4900999;29;20443;-25
2020/12/01 01:37:21;;;;;;;49.20;30.00;;;1.70;99.90;;;;;;4898134;29;20695;-25
2020/12/01 01:39:47;;;;;;;45.73;31.50;;;1.70;99.90;;;;;;4898574;29;20838;-25
2020/12/01 01:42:15;;;;;;;49.23;32.10;;;1.70;99.90;;;;;;4898137;29;20532;-25
2020/12/01 01:44:42;;;;;;;52.70;30.63;;;1.70;99.90;;;;;;4901302;29;20731;-25
2020/12/01 01:47:20;;;;;;;47.30;32.30;;;1.80;99.90;;;;;;4899234;29;20445;-25
2020/12/01 01:49:50;;;;;;;43.57;30.60;;;1.80;99.90;;;;;;4899413;29;20445;-26
2020/12/01 01:52:26;;;;;;;40.53;27.87;;;1.80;99.90;;;;;;4897452;29;20444;-25
2020/12/01 01:54:56;;;;;;;46.00;29.80;;;1.80;99.90;;;;;;4897368;29;20448;-25
2020/12/01 01:57:25;;;;;;;45.10;30.20;;;1.80;99.90;;;;;;4898159;29;20445;-25
2020/12/01 01:59:52;;;;;;;44.47;29.73;;;1.70;99.90;;;;;;4898954;29;21005;-25
2020/12/01 02:02:19;;;;;;;38.97;26.57;;;1.60;99.90;;;;;;4899206;29;20449;-25
2020/12/01 02:04:46;;;;;;;42.57;29.03;;;1.60;99.90;;;;;;4898521;29;20487;-25
2020/12/01 02:07:12;;;;;;;42.50;30.03;;;1.40;99.90;;;;;;4896706;29;20850;-25
2020/12/01 02:09:42;;;;;;;44.77;30.07;;;1.50;99.90;;;;;;4899670;29;20452;-25
2020/12/01 02:12:11;;;;;;;41.33;29.00;;;1.60;99.90;;;;;;4899769;29;20508;-25
2020/12/01 02:14:42;;;;;;;51.57;31.00;;;1.70;99.90;;;;;;4901688;29;20503;-25
2020/12/01 02:17:19;;;;;;;47.17;30.57;;;1.80;99.90;;;;;;4903243;29;20482;-25
2020/12/01 02:19:47;;;;;;;46.27;29.07;;;1.90;99.90;;;;;;4904341;29;20468;-26
2020/12/01 02:22:16;;;;;;;47.97;32.03;;;1.80;99.90;;;;;;4902519;29;20508;-25
2020/12/01 02:24:43;;;;;;;49.10;30.50;;;1.80;99.90;;;;;;4899791;29;20769;-26
2020/12/01 02:27:12;;;;;;;47.40;31.50;;;1.90;99.90;;;;;;4897032;29;20752;-25
2020/12/01 02:29:41;;;;;;;48.23;30.87;;;2.00;99.90;;;;;;4897798;29;20940;-25
2020/12/01 02:32:08;;;;;;;46.87;30.23;;;2.10;99.90;;;;;;4897648;29;20455;-25
2020/12/01 02:34:37;;;;;;;54.30;31.03;;;2.20;99.90;;;;;;4898208;29;20461;-25
2020/12/01 02:37:04;;;;;;;45.03;28.20;;;2.20;99.90;;;;;;4898440;29;20576;-26
2020/12/01 02:39:32;;;;;;;45.60;28.90;;;2.30;99.90;;;;;;4899391;29;20708;-25
2020/12/01 02:42:00;;;;;;;42.63;27.97;;;2.30;99.90;;;;;;4897957;29;20441;-25
2020/12/01 02:44:28;;;;;;;41.30;27.70;;;2.40;99.90;;;;;;4898858;29;20465;-25
2020/12/01 02:46:56;;;;;;;42.33;25.87;;;2.40;99.90;;;;;;4900060;29;20855;-26
2020/12/01 02:50:42;;;;;;;44.23;25.27;;;2.40;99.90;;;;;;5128907;27;20527;-27
2020/12/01 02:53:09;;;;;;;41.93;27.60;;;2.50;99.90;;;;;;5130061;27;20444;-27
2020/12/01 02:55:36;;;;;;;42.23;28.23;;;2.50;99.90;;;;;;5131062;27;20819;-26
2020/12/01 02:58:03;;;;;;;42.97;28.03;;;2.60;99.90;;;;;;5129252;27;20430;-27
2020/12/01 03:00:29;;;;;;;42.17;28.80;;;2.70;99.90;;;;;;5129253;27;20521;-26
2020/12/01 03:02:56;;;;;;;40.67;29.70;;;2.70;99.90;;;;;;5128140;27;20438;-25
2020/12/01 03:05:23;;;;;;;45.90;29.70;;;2.70;99.90;;;;;;5128681;27;20458;-27
2020/12/01 03:07:50;;;;;;;49.07;27.97;;;2.70;99.90;;;;;;5129217;27;20468;-26
2020/12/01 03:10:17;;;;;;;45.10;29.50;;;2.70;99.90;;;;;;5129400;27;20466;-26
2020/12/01 03:12:43;;;;;;;45.13;29.77;;;2.70;99.90;;;;;;5129926;27;20438;-26
2020/12/01 03:15:13;;;;;;;48.57;32.80;;;2.70;99.90;;;;;;5129140;27;20454;-24
2020/12/01 03:17:39;;;;;;;44.90;30.70;;;2.60;99.90;;;;;;5129624;27;20429;-26
2020/12/01 03:20:06;;;;;;;45.57;31.10;;;2.60;99.90;;;;;;5129694;27;20535;-26
2020/12/01 03:22:33;;;;;;;40.70;28.27;;;2.60;99.90;;;;;;5127760;27;20480;-29
2020/12/01 03:25:00;;;;;;;46.47;31.50;;;2.60;99.90;;;;;;5129896;27;20752;-24
2020/12/01 03:27:27;;;;;;;44.20;28.83;;;2.60;99.90;;;;;;5130098;27;20438;-26
2020/12/01 03:29:54;;;;;;;42.57;29.57;;;2.70;99.90;;;;;;5126968;27;20682;-26
2020/12/01 03:32:23;;;;;;;42.87;27.83;;;2.70;99.90;;;;;;5127064;27;20866;-28
2020/12/01 03:34:50;;;;;;;41.90;30.33;;;2.80;99.90;;;;;;5129717;27;20454;-27
2020/12/01 03:37:16;;;;;;;45.47;30.47;;;2.80;99.90;;;;;;5129067;28;20438;-27
2020/12/01 03:39:43;;;;;;;47.30;30.93;;;2.80;99.90;;;;;;5128915;27;20442;-27
2020/12/01 03:42:11;;;;;;;46.37;29.23;;;2.80;99.90;;;;;;5127594;27;20431;-25
2020/12/01 03:44:37;;;;;;;42.17;28.07;;;2.70;99.90;;;;;;5128077;27;20440;-26
2020/12/01 03:47:04;;;;;;;44.80;29.70;;;2.70;99.90;;;;;;5128258;27;20508;-27
2020/12/01 03:49:30;;;;;;;42.93;32.47;;;2.70;99.90;;;;;;5125624;28;20486;-25
2020/12/01 03:51:57;;;;;;;47.20;31.10;;;2.80;99.90;;;;;;5126871;27;20443;-26
2020/12/01 03:54:24;;;;;;;47.03;29.67;;;2.70;99.90;;;;;;5129888;27;20442;-26
2020/12/01 03:56:51;;;;;;;40.93;27.27;;;2.80;99.90;;;;;;5127941;27;20743;-26
2020/12/01 03:59:18;;;;;;;41.87;28.80;;;2.80;99.90;;;;;;5125619;28;20435;-27
2020/12/01 04:01:45;;;;;;;47.30;31.07;;;2.80;99.90;;;;;;5114480;27;20772;-27
2020/12/01 04:04:11;;;;;;;46.20;27.03;;;2.80;99.90;;;;;;5114667;28;20568;-28
2020/12/01 04:06:38;;;;;;;37.97;24.63;;;2.80;99.90;;;;;;5114263;28;20955;-29
2020/12/01 04:09:05;;;;;;;44.90;26.57;;;2.80;99.90;;;;;;5113463;28;20463;-26
2020/12/01 04:11:32;;;;;;;46.17;28.90;;;2.80;99.90;;;;;;5113543;28;20431;-26
2020/12/01 04:13:58;;;;;;;44.00;28.40;;;2.80;99.90;;;;;;5115068;27;21018;-25
2020/12/01 04:16:26;;;;;;;44.97;26.30;;;2.80;99.90;;;;;;5113876;28;20446;-26
2020/12/01 04:18:52;;;;;;;48.67;31.13;;;2.90;99.90;;;;;;5112006;28;20523;-27
2020/12/01 04:21:19;;;;;;;43.60;29.63;;;3.00;99.90;;;;;;5112461;28;20442;-26
2020/12/01 04:23:51;;;;;;;48.80;29.87;;;2.90;99.90;;;;;;5112916;28;20431;-29
2020/12/01 04:26:20;;;;;;;42.23;27.50;;;2.90;99.90;;;;;;5112004;28;20431;-26
2020/12/01 04:28:47;;;;;;;44.77;28.50;;;2.90;99.90;;;;;;5113339;28;20519;-25
2020/12/01 04:31:13;;;;;;;38.90;25.73;;;2.90;99.90;;;;;;5113787;28;20454;-27
2020/12/01 04:33:41;;;;;;;44.27;26.67;;;2.90;99.90;;;;;;5114669;28;20875;-26
2020/12/01 04:36:09;;;;;;;38.73;27.20;;;3.00;99.90;;;;;;5114734;28;20445;-26
2020/12/01 04:38:35;;;;;;;44.63;27.47;;;3.00;99.90;;;;;;5112213;28;20526;-27
2020/12/01 04:41:02;;;;;;;39.37;24.40;;;3.00;99.90;;;;;;5111656;28;20524;-29
2020/12/01 04:43:33;;;;;;;36.23;23.80;;;3.10;99.90;;;;;;5113487;28;20719;-27
2020/12/01 04:46:01;;;;;;;36.13;24.90;;;3.00;99.90;;;;;;5113419;28;20830;-27
2020/12/01 04:48:35;;;;;;;31.03;22.23;;;3.00;99.90;;;;;;5112192;28;20439;-27
2020/12/01 04:51:11;;;;;;;44.83;27.90;;;3.00;99.90;;;;;;5111958;28;20427;-27
2020/12/01 04:54:05;;;;;;;39.97;24.07;;;3.10;99.90;;;;;;5113375;28;20784;-26
2020/12/01 04:57:09;;;;;;;37.43;23.80;;;3.20;99.90;;;;;;5112441;28;20505;-28
2020/12/01 05:00:09;;;;;;;37.43;23.97;;;3.20;99.90;;;;;;5110190;28;20446;-27
2020/12/01 05:02:56;;;;;;;29.97;21.70;;;3.20;99.90;;;;;;5112145;28;20712;-27
2020/12/01 05:06:12;;;;;;;35.23;24.10;;;3.30;99.90;;;;;;5110726;28;20852;-28
2020/12/01 05:08:49;;;;;;;32.23;21.50;;;3.30;99.90;;;;;;5100097;28;20459;-27
2020/12/01 05:11:21;;;;;;;32.23;21.60;;;3.30;99.90;;;;;;5109302;28;20430;-26
2020/12/01 05:13:56;;;;;;;27.33;20.80;;;3.30;99.90;;;;;;5108011;28;20435;-26
2020/12/01 05:16:34;;;;;;;26.23;17.70;;;3.30;99.90;;;;;;5107507;28;20442;-27
2020/12/01 05:19:00;;;;;;;33.97;23.00;;;3.30;99.90;;;;;;5106787;28;20443;-28
2020/12/01 05:21:27;;;;;;;29.03;21.60;;;3.40;99.90;;;;;;5081854;28;20922;-27
2020/12/01 05:23:55;;;;;;;36.70;25.23;;;3.40;99.90;;;;;;5105971;28;20533;-26
2020/12/01 05:26:23;;;;;;;35.30;23.40;;;3.40;99.90;;;;;;5100806;28;20431;-25
2020/12/01 05:28:52;;;;;;;33.20;22.40;;;3.50;99.90;;;;;;5105894;28;20837;-28
2020/12/01 05:31:21;;;;;;;41.80;24.20;;;3.50;99.90;;;;;;5107125;28;20748;-28
2020/12/01 05:33:59;;;;;;;33.13;21.60;;;3.50;99.90;;;;;;5103659;28;20500;-28
2020/12/01 05:36:30;;;;;;;33.17;24.17;;;3.50;99.90;;;;;;5105497;28;20447;-27
2020/12/01 05:39:00;;;;;;;32.83;23.97;;;3.50;99.90;;;;;;5105831;28;20450;-27
2020/12/01 05:41:28;;;;;;;36.97;22.40;;;3.50;99.90;;;;;;5105557;28;20704;-27
2020/12/01 05:43:57;;;;;;;37.67;21.80;;;3.50;99.90;;;;;;5106390;28;20439;-27
2020/12/01 05:46:32;;;;;;;32.17;22.77;;;3.60;99.90;;;;;;5103802;28;20445;-26
2020/12/01 05:49:05;;;;;;;33.60;21.57;;;3.60;99.90;;;;;;5102187;28;20582;-28
2020/12/01 05:51:40;;;;;;;34.53;22.20;;;3.60;99.90;;;;;;5102147;28;20459;-27
2020/12/01 05:54:15;;;;;;;34.07;23.00;;;3.60;99.90;;;;;;5102843;28;20438;-28
2020/12/01 05:56:48;;;;;;;32.33;21.17;;;3.60;99.90;;;;;;5105386;28;20708;-27
2020/12/01 05:59:22;;;;;;;37.97;21.83;;;3.60;99.90;;;;;;5105136;28;20435;-28
2020/12/01 06:01:53;;;;;;;28.80;20.30;;;3.70;99.90;;;;;;5101025;28;20919;-26
2020/12/01 06:04:22;;;;;;;25.70;18.17;;;3.70;99.90;;;;;;5101996;28;20710;-29
2020/12/01 06:07:04;;;;;;;28.50;21.03;;;3.60;99.90;;;;;;5101537;28;20704;-27
2020/12/01 06:10:00;;;;;;;32.00;20.80;;;3.60;99.90;;;;;;5099728;28;20500;-27
2020/12/01 06:13:02;;;;;;;26.97;18.50;;;3.60;99.90;;;;;;5099803;28;20542;-27
2020/12/01 06:15:29;;;;;;;23.90;17.60;;;3.60;99.90;;;;;;5095564;28;20535;-28
2020/12/01 06:18:00;;;;;;;28.17;18.20;;;3.60;99.90;;;;;;5095728;28;20625;-26
2020/12/01 06:20:31;;;;;;;25.53;18.17;;;3.60;99.90;;;;;;5097039;28;20454;-26
2020/12/01 06:23:26;;;;;;;27.57;19.73;;;3.60;99.90;;;;;;5095224;28;20708;-27
2020/12/01 06:26:32;;;;;;;33.13;22.53;;;3.60;99.90;;;;;;5090231;28;20443;-27
2020/12/01 06:29:31;;;;;;;41.43;28.10;;;3.50;99.90;;;;;;5093317;28;20431;-27
2020/12/01 06:32:45;;;;;;;39.70;26.07;;;3.50;99.90;;;;;;5034802;28;20457;-27
2020/12/01 06:35:42;;;;;;;36.10;24.17;;;3.50;99.90;;;;;;5088707;28;20933;-26
2020/12/01 06:38:22;;;;;;;28.90;20.80;;;3.60;99.90;;;;;;5090430;28;20569;-28
2020/12/01 06:40:52;;;;;;;31.50;20.57;;;3.60;99.90;;;;;;5082244;28;20503;-27
2020/12/01 06:43:25;;;;;;;35.10;24.80;;;3.60;99.90;;;;;;5089078;28;20446;-28
2020/12/01 06:45:55;;;;;;;35.57;24.20;;;3.60;99.90;;;;;;5086332;28;20705;-28
2020/12/01 06:48:26;;;;;;;27.30;21.80;;;3.60;99.90;;;;;;5081722;28;20443;-26
2020/12/01 06:50:56;;;;;;;31.80;20.83;;;3.70;99.90;;;;;;5080763;28;20466;-28
2020/12/01 06:53:29;;;;;;;25.30;19.03;;;3.70;99.90;;;;;;5081331;28;20598;-27
2020/12/01 06:55:57;;;;;;;24.63;17.70;;;3.70;99.90;;;;;;5083198;28;20447;-27
2020/12/01 06:58:37;;;;;;;21.73;16.40;;;3.70;99.90;;;;;;5081265;28;20560;-28
2020/12/01 07:01:23;;;;;;;27.90;18.40;;;3.70;99.90;;;;;;5076197;28;20692;-28
2020/12/01 07:04:18;;;;;;;26.70;18.77;;;3.80;99.90;;;;;;5082069;28;20577;-26
2020/12/01 07:06:48;;;;;;;23.47;18.37;;;3.80;99.90;;;;;;5079923;28;20973;-26
2020/12/01 07:09:17;;;;;;;31.50;21.00;;;3.70;99.90;;;;;;5077719;28;20835;-27
2020/12/01 07:12:24;;;;;;;28.73;20.60;;;3.80;99.90;;;;;;5074025;28;20430;-28
2020/12/01 07:15:03;;;;;;;25.97;19.33;;;3.80;99.90;;;;;;5066151;28;20868;-27
2020/12/01 07:17:50;;;;;;;27.30;18.97;;;3.90;99.90;;;;;;5078658;28;20719;-27
2020/12/01 07:20:40;;;;;;;31.57;21.43;;;3.90;99.90;;;;;;5079277;28;20533;-28
2020/12/01 07:23:36;;;;;;;23.00;17.33;;;3.90;99.90;;;;;;5075356;28;20803;-27
2020/12/01 07:26:21;;;;;;;28.20;20.33;;;3.90;99.90;;;;;;5036278;28;20568;-27
2020/12/01 07:29:01;;;;;;;27.53;20.73;;;3.90;99.90;;;;;;5072111;28;20446;-28
2020/12/01 07:31:31;;;;;;;26.73;19.30;;;3.90;99.90;;;;;;5079048;28;20522;-25
2020/12/01 07:34:02;;;;;;;21.97;17.60;;;3.90;99.90;;;;;;5079481;28;20543;-31
2020/12/01 07:36:36;;;;;;;24.93;17.67;;;3.90;99.90;;;;;;5081937;28;21233;-27
2020/12/01 07:39:08;;;;;;;29.27;19.23;;;3.90;99.90;;;;;;5068604;28;20483;-29
2020/12/01 07:41:44;;;;;;;41.53;28.70;;;3.90;99.90;;;;;;5068570;28;20517;-27
2020/12/01 07:44:14;;;;;;;42.63;28.40;;;3.90;99.90;;;;;;5065777;28;20444;-31
2020/12/01 07:46:50;;;;;;;39.40;26.10;;;4.00;99.90;;;;;;5070393;28;20442;-28
2020/12/01 07:49:18;;;;;;;32.00;22.80;;;4.00;99.90;;;;;;5087559;28;20505;-29
2020/12/01 07:51:46;;;;;;;39.10;25.47;;;4.00;99.90;;;;;;5088330;28;20874;-26
2020/12/01 07:54:21;;;;;;;28.87;22.03;;;4.00;99.90;;;;;;5079761;27;20442;-28
2020/12/01 07:56:49;;;;;;;32.50;22.90;;;4.00;99.90;;;;;;5075137;28;20450;-28
2020/12/01 07:59:17;;;;;;;29.30;19.60;;;4.00;99.90;;;;;;5059483;28;20436;-25
2020/12/01 08:01:46;;;;;;;33.37;19.50;;;4.10;99.90;;;;;;5075398;28;20443;-29
2020/12/01 08:04:15;;;;;;;28.67;20.40;;;4.10;99.90;;;;;;5083100;28;20481;-28
2020/12/01 08:06:44;;;;;;;26.20;20.20;;;4.20;99.90;;;;;;5085812;28;20457;-28
2020/12/01 08:09:15;;;;;;;24.60;18.80;;;4.10;99.90;;;;;;5085201;28;20830;-29
2020/12/01 08:11:43;;;;;;;26.40;19.23;;;4.10;99.90;;;;;;5079549;28;20450;-27
2020/12/01 08:14:11;;;;;;;25.47;18.10;;;4.20;99.90;;;;;;5083333;28;20517;-29
2020/12/01 08:16:42;;;;;;;25.27;17.93;;;4.20;99.90;;;;;;5076841;28;20489;-27
2020/12/01 08:19:12;;;;;;;22.23;16.30;;;4.20;99.90;;;;;;5071284;28;20797;-27
2020/12/01 08:21:42;;;;;;;29.00;19.83;;;4.20;99.90;;;;;;5082314;28;20462;-27
2020/12/01 08:24:13;;;;;;;23.03;18.20;;;4.30;99.90;;;;;;5067598;28;20448;-27
2020/12/01 08:26:40;;;;;;;21.20;15.37;;;4.30;99.90;;;;;;5066239;28;20435;-28
2020/12/01 08:29:16;;;;;;;21.67;16.90;;;4.40;99.90;;;;;;5068895;28;20774;-27
2020/12/01 08:31:57;;;;;;;20.50;16.40;;;4.50;99.90;;;;;;5073142;28;20503;-26
2020/12/01 08:34:35;;;;;;;23.37;17.00;;;4.50;99.90;;;;;;5080220;28;20458;-29
2020/12/01 08:37:09;;;;;;;21.60;16.70;;;4.60;99.90;;;;;;5077614;28;20535;-28
2020/12/01 08:39:50;;;;;;;24.70;17.80;;;4.60;99.90;;;;;;5071378;28;20492;-27
2020/12/01 08:42:25;;;;;;;26.30;19.67;;;4.70;99.90;;;;;;5059406;28;20438;-26
2020/12/01 08:45:22;;;;;;;34.57;23.57;;;4.80;99.90;;;;;;5076370;28;20446;-28
2020/12/01 08:47:57;;;;;;;25.37;19.40;;;4.80;99.90;;;;;;5077394;28;20450;-29
2020/12/01 08:50:32;;;;;;;29.17;18.70;;;4.80;99.90;;;;;;5080565;28;20470;-27
2020/12/01 08:53:08;;;;;;;33.90;21.23;;;4.80;99.90;;;;;;5083092;28;20435;-26
2020/12/01 08:55:38;;;;;;;28.80;19.30;;;4.80;99.90;;;;;;5084791;28;21169;-28
2020/12/01 08:58:14;;;;;;;25.97;19.10;;;4.80;99.90;;;;;;5074695;28;21048;-26
2020/12/01 09:01:00;;;;;;;25.40;18.27;;;4.80;99.90;;;;;;5078010;28;20439;-26
2020/12/01 09:03:30;;;;;;;42.87;28.13;;;4.80;99.90;;;;;;5076648;28;20455;-27
2020/12/01 09:05:59;;;;;;;36.37;23.03;;;4.90;99.90;;;;;;5082898;28;20439;-27
2020/12/01 09:08:39;;;;;;;27.53;22.93;;;4.90;99.90;;;;;;5075470;28;20439;-26
2020/12/01 09:11:38;;;;;;;34.40;23.73;;;4.90;99.90;;;;;;5076715;27;20559;-28
2020/12/01 09:14:23;;;;;;;28.07;24.20;;;5.00;99.90;;;;;;5073395;28;20550;-27
2020/12/01 09:17:13;;;;;;;28.00;21.27;;;5.00;99.90;;;;;;5077274;28;20531;-28
2020/12/01 09:20:14;;;;;;;24.00;19.43;;;5.10;99.90;;;;;;5078715;28;20607;-29
2020/12/01 09:22:45;;;;;;;27.50;21.20;;;5.10;99.90;;;;;;5087249;27;21063;-27
2020/12/01 09:25:20;;;;;;;28.97;22.20;;;5.10;99.90;;;;;;5087305;27;20585;-32
2020/12/01 09:27:48;;;;;;;28.83;20.90;;;5.10;99.90;;;;;;5080759;28;20461;-27
2020/12/01 09:30:34;;;;;;;28.57;19.47;;;5.20;99.90;;;;;;5080829;28;20469;-29
2020/12/01 09:33:02;;;;;;;31.77;20.67;;;5.20;99.90;;;;;;5059930;28;20447;-26
2020/12/01 09:35:30;;;;;;;27.83;20.47;;;5.20;99.90;;;;;;5045415;28;20898;-28
2020/12/01 09:37:57;;;;;;;29.40;21.33;;;5.20;99.90;;;;;;5078553;28;20442;-27
2020/12/01 09:40:26;;;;;;;30.60;23.60;;;5.10;99.90;;;;;;5083418;28;20526;-26
2020/12/01 09:42:58;;;;;;;21.17;16.07;;;5.20;99.90;;;;;;5084362;28;20470;-26
2020/12/01 09:45:28;;;;;;;22.87;16.70;;;5.20;99.90;;;;;;5081008;28;20446;-26
2020/12/01 09:48:00;;;;;;;21.20;15.37;;;5.10;99.90;;;;;;5082574;28;20554;-26
2020/12/01 09:50:32;;;;;;;20.30;16.70;;;5.00;99.90;;;;;;5074878;28;20527;-30
2020/12/01 09:53:20;;;;;;;18.30;14.80;;;4.90;99.90;;;;;;5078601;28;20435;-29
2020/12/01 10:10:10;;;;;;;18.27;14.90;;;4.90;99.90;;;;;;5063106;28;20475;-27
2020/12/01 10:12:45;;;;;;;20.73;15.40;;;4.90;99.90;;;;;;5082016;28;20526;-27
2020/12/01 10:21:36;;;;;;;26.37;17.50;;;5.00;99.90;;;;;;5073220;28;20483;-27
2020/12/01 10:33:57;;;;;;;27.20;18.27;;;5.20;99.90;;;;;;5059516;28;20432;-26
2020/12/01 10:35:24;;;;;;;27.53;17.50;;;5.20;99.90;;;;;;5056168;28;20515;-27
2020/12/01 10:38:05;;;;;;;21.00;17.97;;;5.20;99.90;;;;;;5074044;28;20430;-29
2020/12/01 10:40:45;;;;;;;23.80;17.53;;;5.10;99.90;;;;;;5075654;28;20966;-29
2020/12/01 10:43:13;;;;;;;27.17;18.23;;;5.10;99.90;;;;;;5070106;28;20537;-27
2020/12/01 10:45:46;;;;;;;25.80;17.40;;;5.20;99.90;;;;;;5076651;28;20481;-27
2020/12/01 10:48:13;;;;;;;20.17;15.27;;;5.20;99.90;;;;;;5077569;28;21125;-26
2020/12/01 10:50:55;;;;;;;25.87;16.73;;;5.10;99.90;;;;;;5078617;28;21348;-27
2020/12/01 10:53:24;;;;;;;22.60;16.57;;;5.00;99.90;;;;;;5082904;28;20454;-27
2020/12/01 10:55:51;;;;;;;22.37;16.80;;;5.00;99.90;;;;;;5076831;28;20511;-27
2020/12/01 10:58:22;;;;;;;25.03;16.90;;;5.10;99.90;;;;;;5077864;28;20493;-27
2020/12/01 11:00:49;;;;;;;27.20;17.47;;;5.00;99.90;;;;;;5093003;28;21334;-28
2020/12/01 11:03:18;;;;;;;22.40;15.13;;;5.00;99.90;;;;;;5100355;28;20442;-28
2020/12/01 11:05:51;;;;;;;27.40;16.10;;;5.00;99.90;;;;;;5076448;28;20445;-28
2020/12/01 11:08:18;;;;;;;19.73;13.67;;;5.10;99.90;;;;;;5085873;28;20434;-27
2020/12/01 11:10:46;;;;;;;29.33;23.87;;;5.10;99.90;;;;;;5095557;27;20470;-27
2020/12/01 11:13:16;;;;;;;22.90;16.70;;;5.10;99.90;;;;;;5098655;27;20457;-28
2020/12/01 11:15:44;;;;;;;25.00;17.30;;;5.20;99.90;;;;;;5103576;27;20442;-27
2020/12/01 11:18:11;;;;;;;26.20;18.27;;;5.10;99.90;;;;;;5097929;27;20431;-27
2020/12/01 11:20:38;;;;;;;24.33;17.43;;;5.00;99.90;;;;;;5096563;27;20465;-28
2020/12/01 11:23:05;;;;;;;25.50;18.30;;;5.00;99.90;;;;;;5090539;27;20497;-28
2020/12/01 11:25:35;;;;;;;22.43;17.57;;;5.00;99.90;;;;;;5059494;28;20447;-28
2020/12/01 11:28:02;;;;;;;23.33;17.10;;;5.00;99.90;;;;;;5067242;28;20640;-27
2020/12/01 11:30:33;;;;;;;28.23;18.27;;;5.00;99.90;;;;;;5061284;28;21010;-26
2020/12/01 11:33:02;;;;;;;27.53;19.73;;;5.10;99.90;;;;;;5057757;28;20438;-30
2020/12/01 11:35:41;;;;;;;23.10;16.67;;;5.20;99.90;;;;;;5056589;28;20729;-27
2020/12/01 11:38:09;;;;;;;24.10;18.50;;;5.30;99.90;;;;;;5073196;28;20456;-27
2020/12/01 11:40:38;;;;;;;20.80;17.00;;;5.30;99.90;;;;;;5081271;28;20447;-27
2020/12/01 11:43:20;;;;;;;19.80;15.90;;;5.30;99.90;;;;;;5081776;28;20534;-28
2020/12/01 11:45:49;;;;;;;21.10;16.07;;;5.20;99.90;;;;;;5081248;28;20463;-28
2020/12/01 11:48:16;;;;;;;20.37;15.50;;;5.10;99.90;;;;;;5082246;27;20862;-26
2020/12/01 11:51:05;;;;;;;19.57;14.07;;;5.10;99.90;;;;;;5128942;27;20644;-27
2020/12/01 11:53:47;;;;;;;32.37;22.83;;;5.00;99.90;;;;;;5118081;27;20491;-27
2020/12/01 11:56:19;;;;;;;21.80;15.10;;;5.00;99.90;;;;;;5100670;27;20555;-27
2020/12/01 11:58:52;;;;;;;17.17;13.40;;;4.90;99.90;;;;;;5082590;27;20714;-27
2020/12/01 12:01:21;;;;;;;23.70;17.30;;;4.90;99.90;;;;;;5099284;27;20453;-28
2020/12/01 12:03:50;;;;;;;18.40;14.60;;;4.90;99.90;;;;;;5118134;27;20452;-27
2020/12/01 12:06:18;;;;;;;21.37;16.43;;;4.90;99.90;;;;;;5125058;27;20437;-28
2020/12/01 12:08:46;;;;;;;23.20;16.93;;;5.00;99.90;;;;;;5123389;27;20486;-26
2020/12/01 12:11:14;;;;;;;31.80;24.47;;;5.10;99.90;;;;;;5082369;27;20466;-28
2020/12/01 12:13:46;;;;;;;17.53;14.00;;;5.20;99.90;;;;;;5105464;27;20444;-28
2020/12/01 12:16:14;;;;;;;16.50;13.10;;;5.20;99.90;;;;;;5111927;27;21083;-28
2020/12/01 12:18:42;;;;;;;17.17;13.50;;;5.30;99.90;;;;;;5127141;27;20457;-28
2020/12/01 12:21:09;;;;;;;21.23;16.63;;;5.30;99.90;;;;;;5129233;27;20445;-27
2020/12/01 12:23:37;;;;;;;27.73;20.50;;;5.30;99.90;;;;;;5124864;27;20444;-27
2020/12/01 12:26:05;;;;;;;16.87;15.07;;;5.20;99.90;;;;;;5129837;27;20461;-27
2020/12/01 12:28:33;;;;;;;20.07;13.20;;;5.30;99.90;;;;;;5116051;27;20493;-30
2020/12/01 12:31:01;;;;;;;15.60;12.40;;;5.30;99.90;;;;;;5103102;27;20470;-30
2020/12/01 12:33:30;;;;;;;19.40;14.17;;;5.30;99.90;;;;;;5077316;27;20529;-27
2020/12/01 12:36:00;;;;;;;17.57;13.07;;;5.30;99.90;;;;;;5093874;27;20785;-27
2020/12/01 12:38:29;;;;;;;20.80;12.93;;;5.30;99.90;;;;;;5106020;27;21145;-27
2020/12/01 12:40:57;;;;;;;17.93;14.90;;;5.20;99.90;;;;;;5080961;28;20519;-28
2020/12/01 12:46:25;;;;;;;23.30;19.57;;;5.10;99.90;;;;;;5081385;27;20793;-27
2020/12/01 12:48:53;;;;;;;24.37;16.97;;;5.10;99.90;;;;;;5082476;28;20798;-27
2020/12/01 12:51:20;;;;;;;26.17;18.30;;;5.10;99.90;;;;;;5083721;28;20496;-28
2020/12/01 12:53:48;;;;;;;22.80;18.33;;;5.00;99.90;;;;;;5089024;27;20489;-27
2020/12/01 12:56:16;;;;;;;26.63;17.23;;;5.00;99.90;;;;;;5095507;27;20463;-28
2020/12/01 12:58:44;;;;;;;27.67;18.00;;;5.00;99.90;;;;;;5084933;28;20445;-29
2020/12/01 13:01:14;;;;;;;25.20;16.97;;;5.10;99.90;;;;;;5083867;28;20831;-26
2020/12/01 13:03:42;;;;;;;18.90;14.70;;;5.10;99.90;;;;;;5085430;28;20601;-29
2020/12/01 13:06:09;;;;;;;21.40;16.03;;;5.20;99.90;;;;;;5088262;27;20443;-29
2020/12/01 13:08:36;;;;;;;16.57;13.30;;;5.30;99.90;;;;;;5078685;28;20458;-29
2020/12/01 13:11:04;;;;;;;18.57;13.87;;;5.40;99.90;;;;;;5086180;28;21375;-27
2020/12/01 13:13:32;;;;;;;22.43;17.00;;;5.40;99.90;;;;;;5094949;27;20914;-27
2020/12/01 13:15:59;;;;;;;23.93;17.17;;;5.50;99.90;;;;;;5095637;27;20461;-26
2020/12/01 13:18:27;;;;;;;28.87;20.13;;;5.50;99.90;;;;;;5109415;27;20566;-25
2020/12/01 13:20:54;;;;;;;30.13;22.17;;;5.50;99.90;;;;;;5127259;27;21209;-26
2020/12/01 13:23:22;;;;;;;25.47;18.93;;;5.40;99.90;;;;;;5130618;27;20433;-27
2020/12/01 13:25:50;;;;;;;23.00;17.40;;;5.40;99.90;;;;;;5119570;27;20442;-27
2020/12/01 13:28:18;;;;;;;24.83;19.57;;;5.50;99.90;;;;;;5106949;27;21413;-26
2020/12/01 13:30:45;;;;;;;24.10;17.70;;;5.50;99.90;;;;;;5109132;27;20469;-26
2020/12/01 13:33:11;;;;;;;23.70;17.63;;;5.50;99.90;;;;;;5122211;27;20913;-25